This is the latest recevied weather packets stored in our database for station/object EA2DXT-10. If no packets are shown the sender has not sent any weather packets the latest 10 day(s).
| Time | Temp. | Humidity | Pressure | Rain* | Wind** | Luminosity | Snow |
|---|---|---|---|---|---|---|---|
| 1777488418 | 13.89° C | 79% | 942.6 hPa | - | - | - | - |
| 1777487549 | 14.44° C | 79% | 942.7 hPa | - | - | - | - |
| 1777487518 | 14.44° C | 79% | 942.7 hPa | - | - | - | - |
| 1777486684 | 15° C | 78% | 942.4 hPa | - | - | - | - |
| 1777485783 | 15° C | 77% | 942 hPa | - | - | - | - |
| 1777484883 | 16.11° C | 74% | 941.5 hPa | - | - | - | - |
| 1777484004 | 13.33° C | 76% | 942 hPa | - | - | - | - |
| 1777483082 | 13.33° C | 76% | 942.2 hPa | - | - | - | - |
| 1777482182 | 13.33° C | 75% | 941.6 hPa | - | - | - | - |
| 1777481282 | 12.78° C | 74% | 941.5 hPa | - | - | - | - |
| 1777480382 | 12.78° C | 73% | 941.9 hPa | - | - | - | - |
| 1777479481 | 13.33° C | 71% | 942.3 hPa | - | - | - | - |
| 1777478600 | 14.44° C | 69% | 942 hPa | - | - | - | - |
| 1777477681 | 15° C | 67% | 933.2 hPa | - | - | - | - |
| 1777476781 | 23.89° C | 64% | 940.1 hPa | - | - | - | - |
| 1777475880 | 25° C | 63% | 941 hPa | - | - | - | - |
| 1777475000 | 22.22° C | 67% | 940.8 hPa | - | - | - | - |
| 1777474079 | 22.22° C | 66% | 939.3 hPa | - | - | - | - |
| 1777473179 | 22.78° C | 68% | 940.8 hPa | - | - | - | - |
| 1777472279 | 21.67° C | 71% | 940.5 hPa | - | - | - | - |
| 1777471379 | 17.78° C | 73% | 940.4 hPa | - | - | - | - |
| 1777470478 | 17.22° C | 75% | 943.8 hPa | - | - | - | - |
| 1777470458 | 16.67° C | 75% | 940.6 hPa | - | - | - | - |
| 1777470441 | 16.67° C | 74% | 940.7 hPa | - | - | - | - |
| 1777470440 | 11.11° C | 74% | 931.5 hPa | - | - | - | - |
* Rain since midnight (hover to see other rain measurements)
** Current wind speed in m/s (hover to see current wind gust speed)